createdAt,value
2018-12-13T00:00:24.088Z,24.60
2018-12-13T00:02:54.842Z,25.57
2018-12-13T00:05:25.758Z,23.43
2018-12-13T00:07:54.772Z,26.00
2018-12-13T00:10:23.563Z,24.07
2018-12-13T00:12:54.502Z,22.80
2018-12-13T00:15:26.439Z,22.77
2018-12-13T00:17:55.227Z,26.63
2018-12-13T00:20:24.059Z,21.93
2018-12-13T00:22:52.913Z,28.20
2018-12-13T00:25:22.010Z,29.87
2018-12-13T00:27:50.888Z,25.17
2018-12-13T00:30:19.750Z,24.00
2018-12-13T00:32:48.556Z,23.33
2018-12-13T00:35:17.507Z,28.73
2018-12-13T00:37:46.284Z,27.80
2018-12-13T00:40:15.183Z,22.73
2018-12-13T00:42:43.960Z,22.73
2018-12-13T00:45:12.952Z,24.37
2018-12-13T00:47:41.734Z,25.47
2018-12-13T00:50:10.926Z,32.30
2018-12-13T00:52:39.769Z,27.77
2018-12-13T00:55:08.664Z,23.55
2018-12-13T00:57:37.468Z,24.80
2018-12-13T01:00:07.874Z,24.93
2018-12-13T01:02:36.958Z,28.07
2018-12-13T01:05:05.964Z,27.13
2018-12-13T01:07:35.010Z,28.20
2018-12-13T01:10:04.414Z,24.23
2018-12-13T01:12:34.250Z,22.83
2018-12-13T01:15:03.222Z,21.15
2018-12-13T01:17:33.804Z,24.00
2018-12-13T01:20:05.840Z,29.20
2018-12-13T01:22:34.693Z,21.83
2018-12-13T01:25:03.623Z,26.97
2018-12-13T01:27:32.412Z,24.30
2018-12-13T01:30:01.415Z,23.13
2018-12-13T01:32:30.348Z,24.40
2018-12-13T01:34:59.070Z,24.37
2018-12-13T01:37:27.790Z,26.57
2018-12-13T01:39:56.616Z,23.92
2018-12-13T01:42:25.435Z,21.67
2018-12-13T01:44:54.171Z,21.40
2018-12-13T01:47:22.906Z,23.47
2018-12-13T01:49:51.932Z,21.03
2018-12-13T01:52:20.664Z,19.73
2018-12-13T01:54:49.393Z,21.50
2018-12-13T01:57:18.168Z,22.37
2018-12-13T01:59:46.986Z,19.57
2018-12-13T02:02:15.726Z,23.50
2018-12-13T02:04:44.687Z,21.33
2018-12-13T02:07:13.522Z,21.13
2018-12-13T02:09:42.512Z,18.97
2018-12-13T02:12:11.762Z,21.33
2018-12-13T02:14:40.535Z,17.03
2018-12-13T02:17:11.467Z,20.00
2018-12-13T02:19:40.286Z,18.83
2018-12-13T02:22:09.315Z,19.67
2018-12-13T02:24:38.742Z,23.33
2018-12-13T02:27:07.596Z,20.50
2018-12-13T02:29:36.432Z,19.17
2018-12-13T02:32:05.521Z,20.53
2018-12-13T02:34:34.356Z,16.80
2018-12-13T02:37:06.181Z,20.00
2018-12-13T02:39:34.147Z,26.03
2018-12-13T02:42:02.955Z,21.53
2018-12-13T02:44:31.671Z,20.70
2018-12-13T02:47:00.400Z,19.03
2018-12-13T02:49:29.550Z,20.50
2018-12-13T02:51:58.431Z,18.40
2018-12-13T02:54:27.171Z,20.83
2018-12-13T02:56:55.939Z,22.23
2018-12-13T02:59:31.402Z,21.33
2018-12-13T03:02:01.031Z,28.77
2018-12-13T03:04:30.940Z,25.20
2018-12-13T03:06:59.935Z,21.47
2018-12-13T03:09:29.019Z,22.47
2018-12-13T03:11:57.832Z,23.70
2018-12-13T03:14:26.545Z,22.07
2018-12-13T03:16:55.678Z,21.87
2018-12-13T03:21:58.562Z,29.83
2018-12-13T03:24:27.450Z,24.20
2018-12-13T03:26:56.344Z,27.43
2018-12-13T03:29:25.096Z,26.10
2018-12-13T03:31:54.449Z,24.57
2018-12-13T03:34:23.245Z,25.47
2018-12-13T03:36:52.035Z,28.63
2018-12-13T03:39:21.092Z,30.27
2018-12-13T03:41:50.055Z,24.17
2018-12-13T03:44:18.847Z,25.23
2018-12-13T03:46:47.796Z,24.53
2018-12-13T03:49:16.732Z,28.10
2018-12-13T03:51:45.451Z,25.63
2018-12-13T03:54:14.335Z,27.00
2018-12-13T03:56:43.387Z,26.37
2018-12-13T03:59:12.181Z,24.97
2018-12-13T04:01:41.290Z,25.23
2018-12-13T04:04:10.102Z,27.15
2018-12-13T04:06:38.931Z,24.67
2018-12-13T04:09:07.983Z,23.20
2018-12-13T04:11:36.890Z,23.80
2018-12-13T04:14:05.805Z,21.85
2018-12-13T04:16:34.584Z,22.30
2018-12-13T04:19:03.444Z,20.57
2018-12-13T04:21:32.179Z,20.93
2018-12-13T04:24:01.051Z,20.77
2018-12-13T04:26:29.982Z,21.50
2018-12-13T04:28:58.715Z,25.43
2018-12-13T04:31:27.883Z,19.87
2018-12-13T04:33:56.574Z,22.17
2018-12-13T04:36:25.459Z,17.67
2018-12-13T04:38:54.344Z,21.83
2018-12-13T04:41:23.146Z,19.60
2018-12-13T04:43:51.954Z,23.40
2018-12-13T04:46:20.826Z,20.20
2018-12-13T04:48:49.612Z,21.33
2018-12-13T04:51:18.436Z,17.57
2018-12-13T04:54:05.928Z,19.30
2018-12-13T04:56:34.660Z,17.45
2018-12-13T04:59:04.489Z,18.57
2018-12-13T05:01:33.234Z,18.90
2018-12-13T05:04:03.213Z,19.90
2018-12-13T05:06:31.943Z,19.30
2018-12-13T05:09:01.835Z,18.83
2018-12-13T05:11:32.500Z,14.97
2018-12-13T05:14:01.418Z,17.57
2018-12-13T05:16:30.225Z,17.23
2018-12-13T05:18:59.086Z,16.07
2018-12-13T05:21:28.179Z,15.40
2018-12-13T05:23:57.096Z,17.43
2018-12-13T05:26:25.897Z,17.53
2018-12-13T05:28:54.631Z,15.57
2018-12-13T05:31:23.512Z,19.23
2018-12-13T05:33:52.335Z,16.73
2018-12-13T05:36:22.126Z,15.63
2018-12-13T05:38:51.154Z,13.70
2018-12-13T05:41:20.141Z,12.93
2018-12-13T05:43:53.072Z,15.55
2018-12-13T05:46:22.404Z,16.77
2018-12-13T05:48:51.303Z,16.53
2018-12-13T05:51:20.110Z,15.57
2018-12-13T05:53:49.070Z,17.00
2018-12-13T05:56:17.891Z,15.33
2018-12-13T05:58:46.684Z,14.33
2018-12-13T06:01:15.477Z,15.07
2018-12-13T06:03:44.416Z,15.47
2018-12-13T06:06:13.616Z,18.23
2018-12-13T06:08:42.337Z,16.03
2018-12-13T06:11:11.132Z,16.95
2018-12-13T06:13:39.987Z,16.70
2018-12-13T06:16:09.139Z,16.80
2018-12-13T06:18:37.968Z,16.77
2018-12-13T06:21:11.854Z,14.63
2018-12-13T06:23:37.740Z,16.17
2018-12-13T06:26:06.479Z,16.17
2018-12-13T06:28:35.278Z,14.63
2018-12-13T06:31:04.907Z,16.75
2018-12-13T06:33:33.649Z,15.17
2018-12-13T06:36:02.461Z,16.07
2018-12-13T06:38:31.255Z,16.97
2018-12-13T06:41:00.005Z,19.25
2018-12-13T06:43:28.722Z,17.40
2018-12-13T06:45:57.524Z,17.70
2018-12-13T06:48:26.307Z,15.97
2018-12-13T06:50:55.186Z,15.97
2018-12-13T06:53:23.991Z,19.07
2018-12-13T06:55:52.878Z,16.97
2018-12-13T06:58:21.685Z,16.97
2018-12-13T07:00:50.502Z,17.00
2018-12-13T07:03:19.527Z,18.73
2018-12-13T07:05:48.258Z,17.63
2018-12-13T07:08:17.203Z,18.87
2018-12-13T07:10:46.119Z,18.50
2018-12-13T07:13:15.119Z,20.72
2018-12-13T07:15:43.843Z,18.63
2018-12-13T07:18:12.643Z,22.62
2018-12-13T07:20:41.375Z,23.57
2018-12-13T07:23:10.143Z,24.13
2018-12-13T07:25:38.917Z,25.50
2018-12-13T07:28:07.769Z,24.37
2018-12-13T07:30:36.595Z,25.40
2018-12-13T07:33:05.732Z,24.43
2018-12-13T07:35:34.530Z,23.37
2018-12-13T07:38:03.728Z,24.33
2018-12-13T07:40:32.495Z,21.80
2018-12-13T07:43:01.788Z,23.10
2018-12-13T07:45:30.665Z,26.20
2018-12-13T07:47:59.840Z,27.17
2018-12-13T07:50:28.787Z,30.40
2018-12-13T07:52:57.580Z,23.33
2018-12-13T07:55:26.515Z,24.63
2018-12-13T07:57:55.242Z,26.30
2018-12-13T08:00:24.088Z,25.23
2018-12-13T08:02:52.948Z,26.00
2018-12-13T08:05:21.720Z,26.03
2018-12-13T08:07:50.679Z,25.77
2018-12-13T08:10:19.492Z,24.67
2018-12-13T08:12:48.303Z,29.73
2018-12-13T08:15:17.457Z,24.27
2018-12-13T08:17:46.682Z,28.50
2018-12-13T08:20:18.473Z,27.75
2018-12-13T08:22:47.324Z,31.67
2018-12-13T08:25:16.358Z,27.00
2018-12-13T08:27:45.248Z,27.53
2018-12-13T08:30:14.071Z,26.63
2018-12-13T08:32:42.928Z,24.37
2018-12-13T08:35:11.850Z,27.37
2018-12-13T08:37:40.788Z,27.80
2018-12-13T08:40:09.657Z,30.08
2018-12-13T08:42:38.519Z,27.97
2018-12-13T08:45:07.519Z,31.80
2018-12-13T08:47:36.347Z,31.40
2018-12-13T08:50:05.504Z,27.57
2018-12-13T08:52:34.995Z,27.77
2018-12-13T08:55:05.025Z,29.27
2018-12-13T08:57:34.947Z,31.67
2018-12-13T09:00:07.019Z,28.65
2018-12-13T09:02:37.389Z,29.00
2018-12-13T09:05:07.078Z,30.20
2018-12-13T09:07:36.010Z,27.57
2018-12-13T09:10:05.411Z,33.37
2018-12-13T09:12:34.264Z,32.70
2018-12-13T09:15:03.142Z,28.87
2018-12-13T09:17:31.990Z,30.20
2018-12-13T09:20:00.915Z,31.37
2018-12-13T09:22:31.378Z,33.27
2018-12-13T09:25:00.126Z,36.33
2018-12-13T09:27:28.922Z,31.40
2018-12-13T09:29:57.697Z,34.90
2018-12-13T09:32:26.424Z,31.73
2018-12-13T09:34:55.416Z,35.80
2018-12-13T09:37:24.413Z,28.17
2018-12-13T09:39:53.129Z,32.40
2018-12-13T09:42:22.170Z,28.23
2018-12-13T09:44:51.395Z,32.73
2018-12-13T09:47:20.429Z,34.20
2018-12-13T09:49:49.373Z,31.03
2018-12-13T09:52:18.169Z,30.97
2018-12-13T09:54:47.050Z,28.90
2018-12-13T09:57:22.423Z,30.23
2018-12-13T09:59:51.172Z,31.27
2018-12-13T10:02:19.898Z,30.03
2018-12-13T10:04:48.668Z,31.13
2018-12-13T10:07:17.476Z,31.13
2018-12-13T10:09:46.242Z,29.17
2018-12-13T10:12:15.133Z,27.07
2018-12-13T10:14:43.889Z,31.57
2018-12-13T10:17:12.685Z,30.23
2018-12-13T10:19:41.400Z,25.83
2018-12-13T10:22:11.885Z,27.77
2018-12-13T10:24:41.162Z,28.65
2018-12-13T10:27:09.982Z,28.80
2018-12-13T10:29:40.954Z,30.60
2018-12-13T10:32:09.991Z,33.23
2018-12-13T10:34:38.923Z,27.10
2018-12-13T10:37:07.665Z,25.00
2018-12-13T10:39:36.452Z,28.20
2018-12-13T10:42:05.302Z,25.83
2018-12-13T10:44:36.182Z,26.33
2018-12-13T10:47:05.540Z,26.35
2018-12-13T10:49:34.763Z,27.63
2018-12-13T10:52:03.644Z,25.97
2018-12-13T10:54:32.466Z,25.70
2018-12-13T10:57:01.263Z,28.30
2018-12-13T10:59:30.197Z,25.17
2018-12-13T11:02:02.331Z,24.03
2018-12-13T11:04:31.163Z,23.23
2018-12-13T11:07:00.234Z,26.10
2018-12-13T11:09:30.083Z,22.80
2018-12-13T11:12:00.747Z,26.67
2018-12-13T11:14:29.617Z,24.63
2018-12-13T11:16:58.344Z,22.93
2018-12-13T11:19:27.211Z,22.77
2018-12-13T11:21:56.199Z,23.03
2018-12-13T11:24:24.920Z,24.13
2018-12-13T11:26:57.046Z,22.57
2018-12-13T11:29:37.052Z,22.93
2018-12-13T11:32:05.905Z,20.53
2018-12-13T11:34:34.627Z,24.57
2018-12-13T11:37:03.416Z,23.17
2018-12-13T11:39:32.370Z,23.17
2018-12-13T11:42:01.107Z,20.93
2018-12-13T11:44:30.031Z,22.07
2018-12-13T11:46:58.747Z,22.45
2018-12-13T11:49:27.794Z,22.43
2018-12-13T11:51:56.771Z,22.10
2018-12-13T11:54:40.169Z,17.40
2018-12-13T11:57:09.191Z,18.53
2018-12-13T11:59:38.046Z,16.30
2018-12-13T12:02:07.282Z,18.27
2018-12-13T12:04:36.006Z,17.77
2018-12-13T12:07:04.938Z,15.97
2018-12-13T12:09:33.867Z,17.53
2018-12-13T12:12:02.737Z,16.50
2018-12-13T12:14:31.827Z,16.93
2018-12-13T12:17:01.567Z,15.07
2018-12-13T12:19:30.744Z,15.40
2018-12-13T12:21:59.655Z,14.93
2018-12-13T12:24:28.419Z,17.10
2018-12-13T12:26:57.183Z,17.37
2018-12-13T12:29:26.031Z,17.90
2018-12-13T12:31:54.834Z,16.10
2018-12-13T12:34:23.786Z,15.80
2018-12-13T12:36:52.624Z,17.40
2018-12-13T12:39:21.367Z,14.97
2018-12-13T12:41:50.110Z,14.30
2018-12-13T12:44:18.854Z,14.20
2018-12-13T12:46:47.891Z,17.63
2018-12-13T12:49:18.555Z,16.37
2018-12-13T12:51:47.563Z,14.33
2018-12-13T12:54:16.336Z,13.83
2018-12-13T12:56:45.103Z,13.53
2018-12-13T12:59:14.013Z,15.45
2018-12-13T13:01:42.795Z,15.00
2018-12-13T13:04:11.683Z,15.78
2018-12-13T13:06:40.662Z,13.83
2018-12-13T13:09:09.515Z,15.23
2018-12-13T13:11:38.729Z,14.33
2018-12-13T13:14:07.608Z,13.87
2018-12-13T13:16:36.400Z,15.03
2018-12-13T13:19:05.342Z,14.20
2018-12-13T13:21:34.261Z,13.60
2018-12-13T13:24:03.047Z,16.30
2018-12-13T13:26:31.758Z,13.50
2018-12-13T13:29:00.691Z,13.27
2018-12-13T13:31:29.624Z,11.17
2018-12-13T13:33:58.342Z,13.90
2018-12-13T13:36:27.131Z,14.57
2018-12-13T13:38:55.967Z,15.00
2018-12-13T13:41:24.855Z,13.90
2018-12-13T13:43:53.706Z,14.17
2018-12-13T13:46:22.619Z,15.85
2018-12-13T13:48:52.606Z,13.97
2018-12-13T13:51:21.351Z,12.67
2018-12-13T13:53:50.093Z,15.33
2018-12-13T13:56:18.823Z,13.10
2018-12-13T13:58:47.671Z,14.77
2018-12-13T14:01:17.503Z,12.30
2018-12-13T14:03:46.350Z,12.67
2018-12-13T14:06:15.142Z,13.20
2018-12-13T14:08:44.251Z,12.97
2018-12-13T14:11:13.258Z,13.95
2018-12-13T14:13:42.078Z,12.53
2018-12-13T14:16:10.873Z,11.73
2018-12-13T14:18:40.370Z,10.30
2018-12-13T14:21:09.283Z,12.05
2018-12-13T14:23:38.126Z,12.17
2018-12-13T14:26:07.423Z,12.83
2018-12-13T14:28:36.198Z,10.40
2018-12-13T14:31:05.115Z,13.10
2018-12-13T14:33:33.918Z,12.47
2018-12-13T14:36:02.859Z,12.03
2018-12-13T14:38:31.666Z,13.90
2018-12-13T14:41:02.342Z,13.03
2018-12-13T14:43:33.309Z,11.60
2018-12-13T14:46:02.198Z,9.50
2018-12-13T14:48:31.115Z,13.45
2018-12-13T14:51:00.106Z,11.25
2018-12-13T14:53:29.194Z,12.10
2018-12-13T14:55:58.199Z,16.40
2018-12-13T14:58:27.100Z,13.60
2018-12-13T15:00:56.078Z,11.50
2018-12-13T15:03:24.855Z,13.03
2018-12-13T15:05:53.627Z,12.30
2018-12-13T15:08:23.285Z,12.30
2018-12-13T15:10:52.115Z,13.00
2018-12-13T15:13:20.921Z,12.43
2018-12-13T15:15:49.795Z,12.50
2018-12-13T15:18:18.754Z,15.13
2018-12-13T15:20:48.134Z,12.57
2018-12-13T15:23:16.869Z,13.73
2018-12-13T15:25:45.707Z,13.53
2018-12-13T15:28:14.879Z,12.45
2018-12-13T15:30:43.701Z,12.63
2018-12-13T15:33:12.770Z,14.00
2018-12-13T15:35:41.491Z,14.40
2018-12-13T15:38:10.231Z,13.68
2018-12-13T15:40:39.058Z,13.63
2018-12-13T15:43:08.148Z,12.03
2018-12-13T15:45:37.222Z,12.40
2018-12-13T15:48:05.966Z,11.30
2018-12-13T15:50:34.723Z,13.73
2018-12-13T15:53:03.524Z,11.17
2018-12-13T15:55:32.609Z,11.93
2018-12-13T15:58:01.367Z,11.73
2018-12-13T16:00:30.150Z,11.67
2018-12-13T16:02:58.994Z,10.60
2018-12-13T16:05:28.116Z,11.10
2018-12-13T16:07:57.149Z,10.50
2018-12-13T16:10:25.930Z,11.23
2018-12-13T16:12:54.797Z,11.73
2018-12-13T16:15:23.696Z,10.00
2018-12-13T16:17:52.504Z,9.50
2018-12-13T16:20:21.234Z,11.73
2018-12-13T16:22:50.058Z,11.43
2018-12-13T16:25:19.190Z,11.73
2018-12-13T16:27:48.046Z,8.57
2018-12-13T16:30:17.162Z,10.35
2018-12-13T16:32:45.963Z,9.70
2018-12-13T16:35:14.778Z,11.93
2018-12-13T16:37:43.715Z,10.33
2018-12-13T16:40:12.586Z,10.50
2018-12-13T16:42:41.339Z,9.80
2018-12-13T16:45:10.130Z,10.82
2018-12-13T16:47:39.683Z,10.83
2018-12-13T16:50:08.589Z,10.23
2018-12-13T16:52:37.724Z,10.60
2018-12-13T16:55:06.795Z,18.40
2018-12-13T16:57:35.794Z,16.43
2018-12-13T17:00:07.020Z,11.35
2018-12-13T17:02:36.175Z,12.23
2018-12-13T17:05:05.307Z,12.03
2018-12-13T17:07:34.128Z,9.80
2018-12-13T17:10:02.919Z,10.27
2018-12-13T17:12:31.895Z,10.43
2018-12-13T17:15:00.794Z,9.43
2018-12-13T17:17:30.430Z,9.70
2018-12-13T17:19:59.331Z,7.53
2018-12-13T17:22:28.115Z,9.13
2018-12-13T17:24:57.082Z,8.47
2018-12-13T17:27:25.946Z,10.27
2018-12-13T17:29:54.814Z,10.70
2018-12-13T17:32:23.598Z,19.30
2018-12-13T17:34:52.322Z,16.60
2018-12-13T17:37:21.073Z,12.63
2018-12-13T17:39:49.973Z,12.50
2018-12-13T17:42:18.772Z,11.68
2018-12-13T17:44:47.524Z,10.77
2018-12-13T17:47:16.942Z,9.25
2018-12-13T17:49:45.843Z,10.33
2018-12-13T17:52:14.652Z,11.40
2018-12-13T17:54:43.411Z,9.63
2018-12-13T17:57:12.195Z,11.03
2018-12-13T17:59:41.051Z,9.10
2018-12-13T18:02:10.054Z,11.53
2018-12-13T18:04:38.860Z,8.63
2018-12-13T18:07:07.745Z,8.93
2018-12-13T18:09:36.541Z,10.00
2018-12-13T18:12:05.423Z,10.97
2018-12-13T18:14:34.210Z,11.03
2018-12-13T18:17:02.999Z,9.03
2018-12-13T18:19:31.931Z,8.83
2018-12-13T18:22:00.640Z,8.20
2018-12-13T18:24:37.840Z,8.23
2018-12-13T18:27:06.961Z,7.87
2018-12-13T18:29:36.195Z,8.93
2018-12-13T18:32:27.247Z,7.40
2018-12-13T18:34:56.130Z,9.50
2018-12-13T18:37:26.140Z,10.27
2018-12-13T18:39:54.868Z,8.77
2018-12-13T18:42:23.801Z,8.10
2018-12-13T18:44:52.754Z,9.27
2018-12-13T18:47:21.811Z,9.13
2018-12-13T18:49:50.718Z,8.63
2018-12-13T18:52:19.848Z,8.57
2018-12-13T18:54:48.692Z,8.33
2018-12-13T18:57:18.985Z,10.85
2018-12-13T18:59:48.822Z,9.63
2018-12-13T19:02:17.811Z,8.95
2018-12-13T19:04:46.801Z,8.33
2018-12-13T19:07:15.890Z,8.80
2018-12-13T19:09:44.931Z,9.27
2018-12-13T19:12:13.775Z,8.37
2018-12-13T19:14:42.846Z,9.68
2018-12-13T19:17:11.834Z,8.60
2018-12-13T19:19:40.772Z,9.27
2018-12-13T19:22:09.807Z,9.67
2018-12-13T19:24:38.824Z,10.47
2018-12-13T19:27:07.735Z,9.17
2018-12-13T19:29:36.802Z,8.83
2018-12-13T19:32:05.841Z,12.77
2018-12-13T19:34:34.948Z,10.50
2018-12-13T19:37:03.842Z,11.40
2018-12-13T19:39:32.659Z,9.80
2018-12-13T19:42:02.070Z,9.40
2018-12-13T19:44:30.978Z,9.60
2018-12-13T19:47:00.063Z,10.77
2018-12-13T19:49:29.048Z,10.83
2018-12-13T19:51:59.194Z,10.13
2018-12-13T19:54:28.009Z,10.43
2018-12-13T19:56:57.175Z,11.63
2018-12-13T19:59:25.890Z,12.43
2018-12-13T20:01:54.711Z,11.10
2018-12-13T20:04:23.526Z,10.57
2018-12-13T20:06:52.611Z,13.07
2018-12-13T20:09:21.367Z,12.27
2018-12-13T20:11:51.830Z,12.40
2018-12-13T20:14:22.683Z,12.23
2018-12-13T20:16:51.565Z,10.73
2018-12-13T20:19:20.565Z,14.15
2018-12-13T20:21:49.576Z,14.10
2018-12-13T20:24:18.543Z,11.28
2018-12-13T20:26:47.543Z,12.67
2018-12-13T20:29:17.209Z,11.95
2018-12-13T20:31:46.838Z,11.70
2018-12-13T20:34:15.820Z,13.40
2018-12-13T20:36:45.047Z,13.60
2018-12-13T20:39:14.189Z,14.68
2018-12-13T20:41:43.814Z,14.60
2018-12-13T20:44:12.656Z,13.63
2018-12-13T20:46:41.935Z,11.70
2018-12-13T20:49:10.955Z,14.30
2018-12-13T20:51:39.927Z,12.73
2018-12-13T20:54:09.012Z,13.70
2018-12-13T20:56:38.548Z,13.58
2018-12-13T20:59:08.139Z,14.27
2018-12-13T21:01:37.898Z,15.30
2018-12-13T21:04:06.807Z,13.33
2018-12-13T21:06:35.745Z,14.83
2018-12-13T21:09:07.203Z,14.55
2018-12-13T21:11:36.852Z,15.87
2018-12-13T21:14:05.847Z,13.80
2018-12-13T21:16:34.752Z,13.87
2018-12-13T21:19:03.872Z,17.70
2018-12-13T21:21:32.745Z,15.40
2018-12-13T21:24:01.470Z,16.93
2018-12-13T21:26:30.587Z,16.10
2018-12-13T21:28:59.414Z,16.30
2018-12-13T21:31:46.950Z,17.67
2018-12-13T21:34:15.908Z,17.17
2018-12-13T21:36:44.882Z,17.20
2018-12-13T21:39:13.812Z,17.82
2018-12-13T21:41:42.538Z,19.23
2018-12-13T21:44:11.562Z,17.33
2018-12-13T21:46:47.127Z,17.83
2018-12-13T21:49:15.848Z,15.20
2018-12-13T21:51:44.717Z,16.77
2018-12-13T21:54:14.480Z,17.60
2018-12-13T21:56:43.785Z,17.07
2018-12-13T21:59:12.902Z,15.98
2018-12-13T22:01:41.667Z,17.27
2018-12-13T22:04:10.529Z,15.40
2018-12-13T22:06:39.575Z,19.90
2018-12-13T22:09:08.718Z,16.93
2018-12-13T22:11:37.486Z,20.73
2018-12-13T22:14:06.383Z,18.40
2018-12-13T22:16:35.104Z,17.37
2018-12-13T22:19:04.287Z,18.73
2018-12-13T22:21:33.077Z,18.03
2018-12-13T22:24:02.043Z,17.87
2018-12-13T22:26:31.210Z,17.80
2018-12-13T22:29:00.133Z,18.53
2018-12-13T22:31:29.094Z,18.20
2018-12-13T22:33:58.483Z,16.60
2018-12-13T22:36:27.537Z,19.63
2018-12-13T22:38:56.470Z,20.73
2018-12-13T22:41:26.454Z,16.67
2018-12-13T22:43:55.666Z,16.10
2018-12-13T22:46:24.693Z,15.87
2018-12-13T22:48:54.498Z,16.67
2018-12-13T22:51:23.662Z,17.10
2018-12-13T22:53:52.576Z,20.67
2018-12-13T22:56:21.551Z,17.73
2018-12-13T22:58:50.461Z,16.37
2018-12-13T23:01:19.566Z,17.50
2018-12-13T23:03:49.674Z,18.47
2018-12-13T23:06:18.530Z,17.93
2018-12-13T23:08:48.246Z,17.17
2018-12-13T23:11:17.498Z,20.10
2018-12-13T23:13:46.268Z,16.70
2018-12-13T23:16:16.003Z,18.17
2018-12-13T23:18:44.930Z,16.70
2018-12-13T23:21:13.847Z,18.62
2018-12-13T23:23:43.083Z,16.97
2018-12-13T23:26:11.847Z,13.57
2018-12-13T23:28:40.652Z,18.33
2018-12-13T23:31:09.598Z,17.40
2018-12-13T23:33:38.505Z,17.50
2018-12-13T23:36:07.951Z,17.83
2018-12-13T23:38:36.894Z,17.70
2018-12-13T23:41:05.684Z,20.70
2018-12-13T23:43:34.932Z,16.67
2018-12-13T23:46:03.935Z,17.10
2018-12-13T23:48:32.681Z,16.83
2018-12-13T23:51:01.482Z,18.20
2018-12-13T23:53:30.391Z,18.13
2018-12-13T23:55:59.603Z,20.07
2018-12-13T23:58:28.603Z,16.73
